Time;durP1;ratioP1;P1;durP2;ratioP2;P2;SDS_P1;SDS_P2;PMS_P1;PMS_P2;Temp;Humidity;BMP_temperature;BMP_pressure;BME280_temperature;BME280_humidity;BME280_pressure;Samples;Min_cycle;Max_cycle;Signal;HPM_P1;HPM_P2
2020/12/14 00:00:13;;;;;;;3.97;3.00;;;7.00;99.90;;;;;;5014717;28;20199;-72
2020/12/14 00:02:39;;;;;;;4.43;2.87;;;7.10;99.90;;;;;;5014858;28;20545;-72
2020/12/14 00:05:06;;;;;;;3.53;3.07;;;7.10;99.90;;;;;;5014703;28;20450;-72
2020/12/14 00:07:32;;;;;;;3.77;3.30;;;7.10;99.90;;;;;;5006997;28;20419;-72
2020/12/14 00:09:59;;;;;;;5.67;2.80;;;7.10;99.90;;;;;;5014434;28;20952;-72
2020/12/14 00:12:24;;;;;;;6.00;2.70;;;7.10;99.90;;;;;;5014174;28;20274;-72
2020/12/14 00:14:50;;;;;;;3.30;2.60;;;7.20;99.90;;;;;;5014623;28;20505;-72
2020/12/14 00:17:19;;;;;;;5.30;3.17;;;7.20;99.90;;;;;;5014165;28;20535;-72
2020/12/14 00:19:45;;;;;;;3.73;2.97;;;7.20;99.90;;;;;;5009044;28;20207;-72
2020/12/14 00:22:11;;;;;;;3.10;2.83;;;7.20;99.90;;;;;;5014408;28;20517;-72
2020/12/14 00:24:37;;;;;;;6.67;3.13;;;7.20;99.90;;;;;;5014257;28;20852;-72
2020/12/14 00:27:03;;;;;;;5.47;3.50;;;7.10;99.90;;;;;;5013050;28;20430;-72
2020/12/14 00:29:28;;;;;;;8.70;3.07;;;7.10;99.90;;;;;;5013837;28;20192;-73
2020/12/14 00:31:54;;;;;;;4.73;2.90;;;7.20;99.90;;;;;;5014363;28;20326;-73
2020/12/14 00:34:21;;;;;;;6.53;2.53;;;7.20;99.90;;;;;;5013981;28;20183;-73
2020/12/14 00:36:47;;;;;;;6.20;2.80;;;7.20;99.90;;;;;;5013235;28;20781;-73
2020/12/14 00:39:12;;;;;;;4.93;2.87;;;7.20;99.90;;;;;;5013517;28;20442;-73
2020/12/14 00:41:38;;;;;;;4.10;2.70;;;7.30;99.90;;;;;;5013495;28;20195;-72
2020/12/14 00:44:04;;;;;;;4.03;2.60;;;7.30;99.90;;;;;;5013637;28;20633;-73
2020/12/14 00:46:29;;;;;;;3.27;2.93;;;7.30;99.90;;;;;;5013943;28;20175;-73
2020/12/14 00:48:55;;;;;;;7.43;3.63;;;7.30;99.90;;;;;;5013186;28;20242;-73
2020/12/14 00:51:27;;;;;;;3.50;2.30;;;7.30;99.90;;;;;;5013812;28;20179;-73
2020/12/14 00:53:54;;;;;;;8.93;3.20;;;7.30;99.90;;;;;;5013594;28;20183;-73
2020/12/14 00:56:20;;;;;;;9.20;2.90;;;7.30;99.90;;;;;;5013439;28;20755;-72
2020/12/14 00:58:45;;;;;;;4.40;3.07;;;7.30;99.90;;;;;;5012462;28;20500;-73
2020/12/14 01:01:13;;;;;;;4.00;2.97;;;7.30;99.90;;;;;;5013556;28;20209;-73
2020/12/14 01:03:38;;;;;;;2.57;2.37;;;7.30;99.90;;;;;;5013558;28;20518;-73
2020/12/14 01:06:04;;;;;;;3.30;2.73;;;7.40;99.90;;;;;;5013286;28;20429;-73
2020/12/14 01:08:29;;;;;;;3.90;2.40;;;7.40;99.90;;;;;;5013071;28;20257;-74
2020/12/14 01:10:55;;;;;;;5.50;2.80;;;7.40;99.90;;;;;;5013284;28;20331;-72
2020/12/14 01:13:20;;;;;;;5.83;2.83;;;7.40;99.90;;;;;;5013305;28;20172;-72
2020/12/14 01:15:46;;;;;;;3.27;2.97;;;7.40;99.90;;;;;;5013311;28;20221;-73
2020/12/14 01:18:12;;;;;;;4.40;2.60;;;7.40;99.90;;;;;;5012664;28;20655;-72
2020/12/14 01:20:41;;;;;;;3.70;2.57;;;7.40;99.90;;;;;;5007935;28;20982;-72
2020/12/14 01:23:08;;;;;;;5.10;3.13;;;7.30;99.90;;;;;;5012433;28;20210;-72
2020/12/14 01:25:34;;;;;;;2.53;2.33;;;7.30;99.90;;;;;;5012036;28;20442;-72
2020/12/14 01:28:00;;;;;;;4.30;2.73;;;7.30;99.90;;;;;;5011983;28;20421;-71
2020/12/14 01:30:25;;;;;;;7.00;2.90;;;7.30;99.90;;;;;;5010770;28;20434;-72
2020/12/14 01:32:51;;;;;;;3.97;2.33;;;7.30;99.90;;;;;;5012277;28;20449;-72
2020/12/14 01:35:17;;;;;;;4.27;2.53;;;7.30;99.90;;;;;;5012043;28;20178;-72
2020/12/14 01:37:43;;;;;;;2.60;2.40;;;7.20;99.90;;;;;;5011814;28;20198;-73
2020/12/14 01:40:09;;;;;;;2.80;2.43;;;7.30;99.90;;;;;;5012187;28;20445;-73
2020/12/14 01:42:41;;;;;;;3.37;2.57;;;7.30;99.90;;;;;;5011794;28;20287;-73
2020/12/14 01:45:07;;;;;;;2.93;2.73;;;7.30;99.90;;;;;;5011929;28;20615;-73
2020/12/14 01:47:37;;;;;;;3.13;2.60;;;7.30;99.90;;;;;;5012288;28;20444;-72
2020/12/14 01:50:07;;;;;;;3.10;2.00;;;7.30;99.90;;;;;;5015321;28;20505;-72
2020/12/14 01:52:34;;;;;;;4.23;2.23;;;7.30;99.90;;;;;;5017725;28;20476;-71
2020/12/14 01:55:01;;;;;;;2.50;2.30;;;7.30;99.90;;;;;;5023307;28;20453;-73
2020/12/14 01:57:28;;;;;;;3.63;2.10;;;7.30;99.90;;;;;;5029498;28;20418;-72
2020/12/14 01:59:57;;;;;;;3.90;2.37;;;7.30;99.90;;;;;;5021691;28;20442;-72
2020/12/14 02:02:23;;;;;;;4.90;2.40;;;7.20;99.90;;;;;;5016585;28;20549;-73
2020/12/14 02:04:49;;;;;;;2.50;2.27;;;7.20;99.90;;;;;;5017495;28;20438;-71
2020/12/14 02:07:15;;;;;;;2.17;1.90;;;7.20;99.90;;;;;;5017279;28;20478;-73
2020/12/14 02:09:40;;;;;;;4.03;2.17;;;7.10;99.90;;;;;;5016375;28;20589;-72
2020/12/14 02:12:06;;;;;;;3.60;2.47;;;7.10;99.90;;;;;;5016736;28;20191;-73
2020/12/14 02:14:32;;;;;;;3.13;2.83;;;7.10;99.90;;;;;;5016900;28;20258;-73
2020/12/14 02:16:57;;;;;;;2.73;2.10;;;7.10;99.90;;;;;;5005809;28;20192;-73
2020/12/14 02:19:22;;;;;;;3.77;2.20;;;7.20;99.90;;;;;;5015681;28;20602;-73
2020/12/14 02:21:51;;;;;;;3.27;2.70;;;7.20;99.90;;;;;;5015931;28;20210;-74
2020/12/14 02:24:17;;;;;;;2.80;2.07;;;7.20;99.90;;;;;;5016065;28;20230;-73
2020/12/14 02:26:48;;;;;;;3.50;3.20;;;7.20;99.90;;;;;;5015894;28;20423;-73
2020/12/14 02:29:15;;;;;;;2.60;1.73;;;7.20;99.90;;;;;;5011464;28;20504;-73
2020/12/14 02:31:41;;;;;;;2.40;2.20;;;7.20;99.90;;;;;;5015868;28;20460;-73
2020/12/14 02:34:06;;;;;;;4.00;2.37;;;7.20;99.90;;;;;;5015770;28;20446;-73
2020/12/14 02:36:32;;;;;;;3.30;2.27;;;7.30;99.90;;;;;;5015780;28;20708;-73
2020/12/14 02:38:57;;;;;;;2.63;2.20;;;7.30;99.90;;;;;;5015403;28;20600;-73
2020/12/14 02:41:23;;;;;;;2.50;2.30;;;7.30;99.90;;;;;;5015687;28;20199;-73
2020/12/14 02:43:48;;;;;;;2.30;2.10;;;7.30;99.90;;;;;;5015941;28;20180;-73
2020/12/14 02:46:14;;;;;;;3.00;1.90;;;7.30;99.90;;;;;;5015425;28;20175;-73
2020/12/14 02:48:39;;;;;;;2.77;2.07;;;7.30;99.90;;;;;;5015528;28;20449;-73
2020/12/14 02:51:05;;;;;;;3.40;2.50;;;7.30;99.90;;;;;;5007159;28;20188;-73
2020/12/14 02:53:30;;;;;;;2.17;1.97;;;7.20;99.90;;;;;;5015016;28;20534;-73
2020/12/14 02:55:56;;;;;;;5.80;2.80;;;7.20;99.90;;;;;;5017285;28;20175;-72
2020/12/14 02:58:21;;;;;;;2.90;1.80;;;7.30;99.90;;;;;;5017934;28;20183;-73
2020/12/14 03:00:47;;;;;;;3.73;2.10;;;7.20;99.90;;;;;;5014973;28;20287;-73
2020/12/14 03:03:13;;;;;;;3.53;2.30;;;7.20;99.90;;;;;;5015518;28;20303;-73
2020/12/14 03:05:38;;;;;;;3.43;2.03;;;7.20;99.90;;;;;;5015213;28;20546;-73
2020/12/14 03:08:03;;;;;;;2.43;2.23;;;7.30;99.90;;;;;;5014968;28;20175;-73
2020/12/14 03:10:29;;;;;;;2.47;1.90;;;7.30;99.90;;;;;;5015149;28;20569;-73
2020/12/14 03:12:54;;;;;;;5.90;2.17;;;7.30;99.90;;;;;;5014937;28;20190;-73
2020/12/14 03:15:20;;;;;;;4.10;1.97;;;7.40;99.90;;;;;;5015090;28;20186;-73
2020/12/14 03:17:45;;;;;;;3.57;2.10;;;7.40;99.90;;;;;;5013427;28;20212;-73
2020/12/14 03:20:11;;;;;;;2.07;1.67;;;7.40;99.90;;;;;;5014586;28;20568;-74
2020/12/14 03:22:37;;;;;;;2.90;2.13;;;7.40;99.90;;;;;;5014780;28;20299;-73
2020/12/14 03:25:03;;;;;;;2.20;1.77;;;7.40;99.90;;;;;;5014886;28;20180;-73
2020/12/14 03:27:28;;;;;;;4.90;1.97;;;7.40;99.90;;;;;;5015073;28;20658;-73
2020/12/14 03:29:54;;;;;;;3.03;1.93;;;7.40;99.90;;;;;;5014616;28;20453;-73
2020/12/14 03:32:19;;;;;;;2.20;2.00;;;7.40;99.90;;;;;;5014848;28;20168;-73
2020/12/14 03:34:45;;;;;;;4.97;2.67;;;7.50;99.90;;;;;;5015055;28;20168;-72
2020/12/14 03:37:10;;;;;;;1.87;1.77;;;7.50;99.90;;;;;;5014577;28;20195;-73
2020/12/14 03:39:36;;;;;;;2.13;1.93;;;7.50;99.90;;;;;;5014923;28;20192;-73
2020/12/14 03:42:01;;;;;;;3.40;1.60;;;7.50;99.90;;;;;;5015063;28;20235;-72
2020/12/14 03:44:27;;;;;;;2.90;1.97;;;7.50;99.90;;;;;;5015213;28;20246;-73
2020/12/14 03:46:52;;;;;;;3.80;1.77;;;7.60;99.90;;;;;;5013181;28;20187;-73
2020/12/14 03:49:18;;;;;;;4.60;2.03;;;7.60;99.90;;;;;;5014542;28;20207;-72
2020/12/14 03:51:44;;;;;;;2.93;1.93;;;7.60;99.90;;;;;;5015028;28;20250;-72
2020/12/14 03:54:09;;;;;;;3.13;1.80;;;7.60;99.90;;;;;;5014764;28;20598;-72
2020/12/14 03:56:35;;;;;;;3.70;1.97;;;7.60;99.90;;;;;;5015062;28;20258;-72
2020/12/14 03:59:00;;;;;;;2.53;1.70;;;7.60;99.90;;;;;;5014468;28;20231;-73
2020/12/14 04:01:26;;;;;;;2.97;2.40;;;7.60;99.90;;;;;;5014342;28;20200;-73
2020/12/14 04:03:53;;;;;;;2.20;2.00;;;7.70;99.90;;;;;;5014837;28;20171;-73
2020/12/14 04:06:22;;;;;;;4.07;1.70;;;7.70;99.90;;;;;;5014443;28;20422;-73
2020/12/14 04:08:48;;;;;;;1.90;1.80;;;7.70;99.90;;;;;;5014150;28;20469;-73
2020/12/14 04:11:14;;;;;;;5.37;3.63;;;7.70;99.90;;;;;;5012291;28;20422;-72
2020/12/14 04:13:41;;;;;;;2.37;2.17;;;7.70;99.90;;;;;;5013077;28;20179;-72
2020/12/14 04:16:07;;;;;;;3.13;1.80;;;7.80;99.90;;;;;;5014439;28;20472;-72
2020/12/14 04:18:33;;;;;;;2.07;1.83;;;7.80;99.90;;;;;;5014067;28;20445;-72
2020/12/14 04:20:58;;;;;;;1.63;1.53;;;7.80;99.90;;;;;;5013726;28;20414;-73
2020/12/14 04:23:24;;;;;;;2.50;1.90;;;7.80;99.90;;;;;;5014522;28;20190;-72
2020/12/14 04:25:49;;;;;;;4.40;2.30;;;7.80;99.90;;;;;;5014424;28;20519;-72
2020/12/14 04:28:15;;;;;;;4.30;2.17;;;7.80;99.90;;;;;;5013657;28;20645;-72
2020/12/14 04:30:40;;;;;;;4.10;2.30;;;7.80;99.90;;;;;;5013551;28;20605;-72
2020/12/14 04:33:06;;;;;;;2.30;1.80;;;7.80;99.90;;;;;;5014149;28;20638;-72
2020/12/14 04:35:32;;;;;;;4.83;1.87;;;7.70;99.90;;;;;;5014393;28;20186;-73
2020/12/14 04:37:58;;;;;;;5.00;1.80;;;7.80;99.90;;;;;;5013788;28;20909;-73
2020/12/14 04:40:27;;;;;;;2.00;1.80;;;7.80;99.90;;;;;;5013868;28;20282;-73
2020/12/14 04:42:54;;;;;;;3.90;1.80;;;7.80;99.90;;;;;;5013719;28;20204;-73
2020/12/14 04:45:21;;;;;;;2.23;2.00;;;7.80;99.90;;;;;;5014293;28;20422;-73
2020/12/14 04:47:48;;;;;;;5.70;2.30;;;7.80;99.90;;;;;;5013177;28;20553;-73
2020/12/14 04:50:15;;;;;;;3.80;2.10;;;7.80;99.90;;;;;;5013663;28;20522;-73
2020/12/14 04:52:42;;;;;;;4.87;1.90;;;7.80;99.90;;;;;;5013507;28;20435;-73
2020/12/14 04:55:10;;;;;;;6.20;2.70;;;7.80;99.90;;;;;;5013557;28;20414;-73
2020/12/14 04:57:36;;;;;;;2.40;2.20;;;7.80;99.90;;;;;;5013576;28;20462;-73
2020/12/14 05:00:07;;;;;;;3.30;2.20;;;7.80;99.90;;;;;;5005693;28;20818;-73
2020/12/14 05:02:33;;;;;;;6.33;2.00;;;7.80;99.90;;;;;;5007989;28;20987;-73
2020/12/14 05:04:58;;;;;;;3.00;2.30;;;7.70;99.90;;;;;;5012731;28;20438;-73
2020/12/14 05:07:44;;;;;;;1.83;1.73;;;7.80;99.90;;;;;;5013306;28;20175;-73
2020/12/14 05:10:13;;;;;;;3.70;2.63;;;7.80;99.90;;;;;;5005550;28;20203;-73
2020/12/14 05:12:43;;;;;;;2.87;1.90;;;7.80;99.90;;;;;;5007357;28;20422;-73
2020/12/14 05:15:30;;;;;;;7.13;2.37;;;7.80;99.90;;;;;;5013582;28;20499;-73
2020/12/14 05:18:15;;;;;;;3.37;2.40;;;7.80;99.90;;;;;;5013188;28;20448;-71
2020/12/14 05:21:03;;;;;;;2.60;2.03;;;7.80;99.90;;;;;;5013136;28;20779;-72
2020/12/14 05:23:29;;;;;;;3.43;2.07;;;7.80;99.90;;;;;;5011232;28;20446;-72
2020/12/14 05:26:08;;;;;;;4.47;2.33;;;7.80;99.90;;;;;;5013759;28;20489;-73
2020/12/14 05:28:35;;;;;;;6.80;2.73;;;7.80;99.90;;;;;;5013102;28;20814;-72
2020/12/14 05:31:00;;;;;;;3.60;2.30;;;7.80;99.90;;;;;;5014367;28;20454;-73
2020/12/14 05:33:29;;;;;;;2.00;1.90;;;7.80;99.90;;;;;;5012570;28;20964;-74
2020/12/14 05:35:54;;;;;;;3.63;1.90;;;7.80;99.90;;;;;;5014583;28;20200;-73
2020/12/14 05:38:22;;;;;;;3.70;2.43;;;7.80;99.90;;;;;;5013681;28;20418;-73
2020/12/14 05:40:56;;;;;;;3.70;2.27;;;7.80;99.90;;;;;;5015359;28;20222;-72
2020/12/14 05:43:27;;;;;;;2.27;2.17;;;7.80;99.90;;;;;;5017345;28;20413;-72
2020/12/14 05:45:55;;;;;;;4.97;2.43;;;7.80;99.90;;;;;;5020643;28;20454;-73
2020/12/14 05:48:24;;;;;;;3.63;2.27;;;7.80;99.90;;;;;;5015181;28;20477;-72
2020/12/14 05:50:53;;;;;;;2.37;2.00;;;7.80;99.90;;;;;;5013366;28;20439;-72
2020/12/14 05:53:20;;;;;;;2.13;1.90;;;7.80;99.90;;;;;;5011464;28;20496;-72
2020/12/14 05:55:47;;;;;;;3.10;1.90;;;7.80;99.90;;;;;;5003033;28;20418;-72
2020/12/14 05:58:14;;;;;;;3.23;1.90;;;7.80;99.90;;;;;;5012998;28;20476;-73
2020/12/14 06:00:43;;;;;;;2.40;2.00;;;7.70;99.90;;;;;;5013237;28;20426;-72
2020/12/14 06:03:10;;;;;;;3.53;2.50;;;7.70;99.90;;;;;;5012821;28;20504;-72
2020/12/14 06:05:36;;;;;;;2.50;2.30;;;7.80;99.90;;;;;;5013091;28;20758;-72
2020/12/14 06:08:27;;;;;;;6.70;2.67;;;7.70;99.90;;;;;;5012630;28;20438;-73
2020/12/14 06:10:58;;;;;;;3.00;2.40;;;7.70;99.90;;;;;;5010785;28;20426;-72
2020/12/14 06:13:30;;;;;;;2.37;1.97;;;7.70;99.90;;;;;;5010955;28;20433;-72
2020/12/14 06:16:00;;;;;;;4.23;2.77;;;7.70;99.90;;;;;;5010935;28;20441;-72
2020/12/14 06:18:31;;;;;;;2.60;2.33;;;7.70;99.90;;;;;;5010363;28;20757;-72
2020/12/14 06:20:57;;;;;;;3.00;2.23;;;7.70;99.90;;;;;;5010561;28;20821;-71
2020/12/14 06:23:24;;;;;;;3.07;2.70;;;7.70;99.90;;;;;;5010494;28;20481;-73
2020/12/14 06:25:49;;;;;;;5.13;2.33;;;7.70;99.90;;;;;;5009407;28;20254;-72
2020/12/14 06:28:30;;;;;;;2.03;1.80;;;7.70;99.90;;;;;;5009946;28;20427;-72
2020/12/14 06:30:56;;;;;;;2.83;2.30;;;7.70;99.90;;;;;;5010438;28;20192;-72
2020/12/14 06:33:40;;;;;;;4.10;1.90;;;7.60;99.90;;;;;;5006560;28;20857;-73
2020/12/14 06:36:17;;;;;;;2.33;1.97;;;7.70;99.90;;;;;;4995095;28;20967;-72
2020/12/14 06:38:44;;;;;;;2.60;2.20;;;7.70;99.90;;;;;;5013585;28;20532;-72
2020/12/14 06:41:15;;;;;;;2.60;2.40;;;7.60;99.90;;;;;;5013348;28;20440;-71
2020/12/14 06:43:42;;;;;;;2.83;2.63;;;7.70;99.90;;;;;;5015388;28;20430;-73
2020/12/14 06:46:08;;;;;;;4.03;2.50;;;7.70;99.90;;;;;;5015999;28;20435;-72
2020/12/14 06:48:45;;;;;;;4.93;2.20;;;7.70;99.90;;;;;;5014229;28;20442;-72
2020/12/14 06:51:19;;;;;;;1.90;1.80;;;7.70;99.90;;;;;;5016148;28;20171;-72
2020/12/14 06:53:52;;;;;;;3.17;2.00;;;7.70;99.90;;;;;;5015957;28;20426;-72
2020/12/14 06:56:40;;;;;;;4.20;2.07;;;7.80;99.90;;;;;;5016076;28;20445;-72
2020/12/14 06:59:29;;;;;;;3.67;2.20;;;7.80;99.90;;;;;;5006816;28;20431;-73
2020/12/14 07:02:02;;;;;;;3.90;2.07;;;7.90;99.90;;;;;;5013263;28;20203;-72
2020/12/14 07:04:28;;;;;;;2.33;1.80;;;7.90;99.90;;;;;;5015229;28;20494;-72
2020/12/14 07:06:57;;;;;;;2.17;1.93;;;7.90;99.90;;;;;;5015358;28;20957;-72
2020/12/14 07:09:27;;;;;;;3.50;2.53;;;7.90;99.90;;;;;;5015786;28;20226;-73
2020/12/14 07:12:09;;;;;;;3.77;2.10;;;7.90;99.90;;;;;;5014029;28;20442;-73
2020/12/14 07:14:55;;;;;;;3.50;2.40;;;7.90;99.90;;;;;;5014405;28;20905;-74
2020/12/14 07:17:28;;;;;;;2.17;1.97;;;7.90;99.90;;;;;;5015030;28;20419;-73
2020/12/14 07:19:58;;;;;;;2.13;1.93;;;8.00;99.90;;;;;;5015179;28;20439;-72
2020/12/14 07:22:34;;;;;;;2.93;2.60;;;8.00;99.90;;;;;;5015424;28;20550;-73
2020/12/14 07:25:05;;;;;;;4.30;2.50;;;8.00;99.90;;;;;;5015748;28;21173;-73
2020/12/14 07:27:32;;;;;;;4.20;2.67;;;8.00;99.90;;;;;;5014596;28;20458;-73
2020/12/14 07:30:09;;;;;;;4.50;2.53;;;7.90;99.90;;;;;;5015099;28;20446;-73
2020/12/14 07:32:36;;;;;;;3.33;2.20;;;8.00;99.90;;;;;;5014098;28;20449;-71
2020/12/14 07:35:06;;;;;;;4.37;2.57;;;7.90;99.90;;;;;;5015520;28;20762;-73
2020/12/14 07:37:32;;;;;;;3.00;2.37;;;8.00;99.90;;;;;;5014892;28;20434;-72
2020/12/14 07:39:58;;;;;;;3.47;2.10;;;8.00;99.90;;;;;;5015255;28;20439;-72
2020/12/14 07:42:24;;;;;;;3.63;2.43;;;8.00;99.90;;;;;;5015290;28;20469;-72
2020/12/14 07:44:50;;;;;;;2.77;2.50;;;8.00;99.90;;;;;;5014856;28;20250;-73
2020/12/14 07:47:20;;;;;;;8.70;2.87;;;8.10;99.90;;;;;;5014316;28;21004;-73
2020/12/14 07:49:46;;;;;;;4.00;2.23;;;8.10;99.90;;;;;;5014111;28;20207;-73
2020/12/14 07:52:26;;;;;;;2.60;2.40;;;8.10;99.90;;;;;;5014692;28;20517;-72
2020/12/14 07:55:01;;;;;;;3.57;2.90;;;8.10;99.90;;;;;;5014941;28;20175;-72
2020/12/14 07:57:31;;;;;;;3.23;2.60;;;8.00;99.90;;;;;;5013994;28;20434;-72
2020/12/14 07:59:57;;;;;;;3.70;3.30;;;8.10;99.90;;;;;;5014726;28;20481;-72
2020/12/14 08:02:24;;;;;;;4.70;2.57;;;8.00;99.90;;;;;;5014517;28;20965;-73
2020/12/14 08:04:49;;;;;;;3.87;2.53;;;8.00;99.90;;;;;;5015263;28;20254;-73
2020/12/14 08:07:18;;;;;;;5.17;2.97;;;8.00;99.90;;;;;;5014316;28;20522;-73
2020/12/14 08:09:46;;;;;;;9.30;3.07;;;8.00;99.90;;;;;;5014471;28;20237;-73
2020/12/14 08:12:13;;;;;;;2.80;2.47;;;7.90;99.90;;;;;;5014337;28;20441;-73
2020/12/14 08:14:39;;;;;;;4.13;2.53;;;8.00;99.90;;;;;;5014154;28;20454;-73
2020/12/14 08:17:11;;;;;;;3.20;2.60;;;8.00;99.90;;;;;;5013051;28;20454;-73
2020/12/14 08:19:37;;;;;;;2.90;2.57;;;8.00;99.90;;;;;;5014125;28;20461;-73
2020/12/14 08:22:09;;;;;;;3.57;3.20;;;8.00;99.90;;;;;;5014343;28;20524;-73
2020/12/14 08:24:39;;;;;;;2.63;2.43;;;8.00;99.90;;;;;;5012749;28;20234;-73
2020/12/14 08:27:12;;;;;;;3.53;3.23;;;8.00;99.90;;;;;;5014633;28;20418;-72
2020/12/14 08:30:09;;;;;;;2.90;2.70;;;8.00;99.90;;;;;;5014249;28;20481;-72
2020/12/14 08:32:34;;;;;;;3.43;3.13;;;8.00;99.90;;;;;;5008040;28;20454;-73
2020/12/14 08:35:00;;;;;;;2.80;2.60;;;8.00;99.90;;;;;;5014127;28;20458;-73
2020/12/14 08:37:26;;;;;;;5.43;3.10;;;8.00;99.90;;;;;;5014136;28;20267;-72
2020/12/14 08:40:03;;;;;;;3.13;2.93;;;8.00;99.90;;;;;;5014016;28;20203;-73
2020/12/14 08:42:32;;;;;;;2.60;2.40;;;8.00;99.90;;;;;;5014682;28;20195;-72
2020/12/14 08:45:17;;;;;;;4.50;2.80;;;8.10;99.90;;;;;;5015117;28;20510;-72
2020/12/14 08:47:43;;;;;;;2.90;2.37;;;8.10;99.90;;;;;;5013992;28;20441;-71
2020/12/14 08:50:11;;;;;;;3.70;2.87;;;8.10;99.90;;;;;;5014959;28;20489;-74
2020/12/14 08:52:37;;;;;;;5.13;3.37;;;8.10;99.90;;;;;;5015327;28;20426;-72
2020/12/14 08:55:04;;;;;;;4.83;2.93;;;8.10;99.90;;;;;;5013784;28;20439;-73
2020/12/14 08:57:32;;;;;;;2.50;2.30;;;8.20;99.90;;;;;;5013693;28;20475;-72
2020/12/14 09:00:12;;;;;;;2.70;2.50;;;8.20;99.90;;;;;;5012789;28;20460;-72
2020/12/14 09:02:38;;;;;;;3.67;2.70;;;8.20;99.90;;;;;;5018872;28;20482;-74
2020/12/14 09:05:35;;;;;;;5.53;2.67;;;8.20;99.90;;;;;;5030190;28;20427;-72
2020/12/14 09:08:15;;;;;;;3.67;2.40;;;8.20;99.90;;;;;;5008094;28;20423;-72
2020/12/14 09:10:40;;;;;;;3.07;2.77;;;8.30;99.90;;;;;;4992833;28;20789;-73
2020/12/14 09:13:07;;;;;;;6.47;3.10;;;8.20;99.90;;;;;;5000035;28;20434;-73
2020/12/14 09:15:33;;;;;;;4.63;2.80;;;8.20;99.90;;;;;;5009737;28;20188;-74
2020/12/14 09:18:08;;;;;;;2.97;2.73;;;8.30;99.90;;;;;;4997843;28;20433;-72
2020/12/14 09:20:34;;;;;;;2.70;2.50;;;8.30;99.90;;;;;;4993514;28;20450;-72
2020/12/14 09:23:00;;;;;;;5.53;3.13;;;8.40;99.90;;;;;;4992251;28;20475;-72
2020/12/14 09:25:26;;;;;;;3.70;2.83;;;8.40;99.90;;;;;;4991938;28;20942;-73
2020/12/14 09:27:52;;;;;;;4.07;2.70;;;8.40;99.90;;;;;;4976408;28;20836;-73
2020/12/14 09:30:18;;;;;;;2.80;2.60;;;8.40;99.90;;;;;;5004191;28;20446;-71
2020/12/14 09:32:43;;;;;;;3.43;2.50;;;8.50;99.90;;;;;;5011881;28;20196;-72
2020/12/14 09:35:12;;;;;;;2.47;2.27;;;8.60;99.90;;;;;;5011452;28;20207;-72
2020/12/14 09:37:37;;;;;;;2.70;2.50;;;8.60;99.90;;;;;;5010846;28;20254;-72
2020/12/14 09:40:04;;;;;;;2.67;2.47;;;8.60;99.90;;;;;;5008887;28;20461;-73
2020/12/14 09:42:30;;;;;;;4.03;3.37;;;8.60;99.90;;;;;;5010238;28;20211;-73
2020/12/14 09:44:56;;;;;;;4.03;2.90;;;8.60;99.90;;;;;;5012236;28;20792;-72
2020/12/14 09:47:22;;;;;;;4.70;3.43;;;8.60;99.90;;;;;;5012744;28;20190;-72
2020/12/14 09:49:48;;;;;;;6.53;3.10;;;8.60;99.90;;;;;;5013123;28;20543;-72
2020/12/14 09:52:13;;;;;;;4.77;2.60;;;8.60;99.90;;;;;;5013978;28;20187;-72
2020/12/14 09:54:39;;;;;;;3.93;3.10;;;8.60;99.90;;;;;;5014266;28;20194;-72
2020/12/14 09:57:04;;;;;;;6.40;3.70;;;8.60;99.90;;;;;;5013208;28;20179;-72
2020/12/14 09:59:30;;;;;;;5.10;3.23;;;8.60;99.90;;;;;;5012342;28;20195;-72
2020/12/14 10:01:55;;;;;;;5.50;3.90;;;8.60;99.90;;;;;;5013907;28;20207;-73
2020/12/14 10:04:21;;;;;;;3.40;3.10;;;8.60;99.90;;;;;;5013789;28;20667;-72
2020/12/14 10:06:47;;;;;;;6.00;3.10;;;8.70;99.90;;;;;;5013411;28;20262;-73
2020/12/14 10:09:13;;;;;;;3.37;2.83;;;8.70;99.90;;;;;;5013737;28;20636;-72
2020/12/14 10:11:39;;;;;;;3.67;3.10;;;8.70;99.90;;;;;;5016891;28;20434;-72
2020/12/14 10:14:05;;;;;;;6.13;5.47;;;8.70;99.90;;;;;;5018154;28;20187;-72
2020/12/14 10:16:37;;;;;;;3.10;2.77;;;8.70;99.90;;;;;;5016122;28;20459;-72
2020/12/14 10:19:06;;;;;;;4.70;3.70;;;8.70;99.90;;;;;;5016947;28;20290;-72
2020/12/14 10:21:31;;;;;;;5.53;3.40;;;8.70;99.90;;;;;;5016935;28;20773;-72
2020/12/14 10:23:57;;;;;;;4.57;2.97;;;8.70;99.90;;;;;;5015203;28;20406;-72
2020/12/14 10:26:23;;;;;;;3.40;3.10;;;8.70;99.90;;;;;;5016215;28;20226;-72
2020/12/14 10:28:48;;;;;;;3.53;3.10;;;8.70;99.90;;;;;;5016728;28;20654;-72
2020/12/14 10:31:14;;;;;;;3.57;3.13;;;8.70;99.90;;;;;;5016834;28;20191;-73
2020/12/14 10:33:45;;;;;;;4.23;3.10;;;8.70;99.90;;;;;;5016842;28;20176;-73
2020/12/14 10:36:11;;;;;;;5.13;3.27;;;8.70;99.90;;;;;;5015685;28;20179;-71
2020/12/14 10:38:38;;;;;;;3.80;3.27;;;8.80;99.90;;;;;;5016808;28;20469;-71
2020/12/14 10:41:03;;;;;;;5.80;3.30;;;8.90;99.90;;;;;;5015772;28;20482;-72
2020/12/14 10:43:30;;;;;;;4.30;2.77;;;8.90;99.90;;;;;;5015199;28;20517;-72
2020/12/14 10:45:56;;;;;;;4.73;3.20;;;9.10;99.90;;;;;;5016594;28;20419;-72
2020/12/14 10:48:22;;;;;;;3.57;3.27;;;9.10;99.90;;;;;;5016670;28;20446;-72
2020/12/14 10:50:47;;;;;;;3.00;2.80;;;9.10;99.90;;;;;;5015733;28;20450;-72
2020/12/14 10:53:13;;;;;;;5.80;2.90;;;9.00;99.90;;;;;;5017084;28;20265;-72
2020/12/14 10:55:38;;;;;;;3.37;2.90;;;9.00;99.90;;;;;;5017121;28;20237;-72
2020/12/14 10:58:04;;;;;;;3.43;3.10;;;9.00;99.90;;;;;;5016495;28;20186;-73
2020/12/14 11:00:30;;;;;;;5.43;3.33;;;9.00;99.90;;;;;;5017000;28;20205;-72
2020/12/14 11:02:59;;;;;;;4.47;2.77;;;9.00;99.90;;;;;;5016853;28;20491;-71
2020/12/14 11:05:25;;;;;;;2.97;2.67;;;9.00;99.90;;;;;;5016345;28;20179;-72
2020/12/14 11:07:50;;;;;;;3.77;2.50;;;9.00;99.90;;;;;;5017007;28;20991;-72
2020/12/14 11:10:16;;;;;;;3.00;2.70;;;9.00;99.90;;;;;;5016816;28;20442;-73
2020/12/14 11:12:42;;;;;;;4.10;3.50;;;9.00;99.90;;;;;;5016229;28;20189;-72
2020/12/14 11:15:09;;;;;;;3.90;3.03;;;9.10;99.90;;;;;;5016713;28;20206;-71
2020/12/14 11:17:36;;;;;;;3.03;2.80;;;9.10;99.90;;;;;;5015833;28;20180;-72
2020/12/14 11:20:04;;;;;;;5.60;2.93;;;9.10;99.90;;;;;;5015773;28;20973;-71
2020/12/14 11:22:30;;;;;;;3.70;2.87;;;9.10;99.90;;;;;;5015543;28;20461;-72
2020/12/14 11:24:55;;;;;;;3.50;3.20;;;9.10;99.90;;;;;;5015346;28;21308;-72
2020/12/14 11:27:21;;;;;;;3.43;2.50;;;9.20;99.90;;;;;;5016121;28;20505;-72
2020/12/14 11:29:46;;;;;;;3.87;2.80;;;9.30;99.90;;;;;;5014600;28;20388;-72
2020/12/14 11:32:12;;;;;;;3.27;3.00;;;9.30;99.90;;;;;;5016233;28;20181;-72
2020/12/14 11:34:38;;;;;;;4.67;2.90;;;9.30;99.90;;;;;;5014742;28;20232;-72
2020/12/14 11:37:03;;;;;;;4.17;2.90;;;9.30;99.90;;;;;;5015367;28;20667;-72
2020/12/14 11:39:29;;;;;;;3.63;3.30;;;9.40;99.90;;;;;;5015350;28;20201;-72
2020/12/14 11:41:55;;;;;;;4.50;3.30;;;9.30;99.90;;;;;;5014318;28;20676;-72
2020/12/14 11:44:20;;;;;;;2.87;2.60;;;9.40;99.90;;;;;;5014339;28;20688;-71
2020/12/14 11:46:50;;;;;;;2.90;2.67;;;9.40;99.90;;;;;;4998208;28;20180;-71
2020/12/14 11:49:17;;;;;;;3.57;2.90;;;9.40;99.90;;;;;;5014722;28;20198;-72
2020/12/14 11:51:43;;;;;;;3.53;2.67;;;9.50;99.90;;;;;;5015374;28;20470;-73
2020/12/14 11:54:09;;;;;;;5.10;3.30;;;9.50;99.90;;;;;;5015742;28;20792;-71
2020/12/14 11:56:34;;;;;;;3.67;2.47;;;9.50;99.90;;;;;;5014094;28;20633;-72
2020/12/14 11:59:00;;;;;;;3.43;3.13;;;9.50;99.90;;;;;;5015109;28;20324;-71
2020/12/14 12:01:26;;;;;;;3.47;3.17;;;9.50;99.90;;;;;;5013567;28;20202;-71
2020/12/14 12:03:51;;;;;;;5.17;2.90;;;9.60;99.90;;;;;;5015815;28;20185;-72
2020/12/14 12:06:17;;;;;;;4.20;2.90;;;9.60;99.90;;;;;;5015132;28;20419;-72
2020/12/14 12:08:43;;;;;;;3.80;2.97;;;9.70;99.90;;;;;;5014688;28;20445;-72
2020/12/14 12:11:13;;;;;;;4.77;2.83;;;9.80;99.90;;;;;;5013382;28;21025;-72
2020/12/14 12:13:40;;;;;;;3.67;3.37;;;9.80;99.90;;;;;;5014842;28;20433;-72
2020/12/14 12:16:08;;;;;;;5.27;3.03;;;9.90;99.90;;;;;;5013140;28;20440;-72
2020/12/14 12:18:34;;;;;;;3.57;3.00;;;9.90;99.90;;;;;;5013337;28;20446;-72
2020/12/14 12:21:01;;;;;;;2.93;2.50;;;10.00;99.90;;;;;;5014397;28;20425;-73
2020/12/14 12:23:27;;;;;;;5.90;4.03;;;10.00;99.90;;;;;;5013451;28;20210;-71
2020/12/14 12:25:53;;;;;;;3.40;3.10;;;10.00;99.90;;;;;;5015206;28;20450;-73
2020/12/14 12:28:18;;;;;;;2.80;2.50;;;9.90;99.90;;;;;;5015383;28;20167;-72
2020/12/14 12:30:44;;;;;;;2.63;2.43;;;9.90;99.90;;;;;;5014034;28;20178;-72
2020/12/14 12:33:10;;;;;;;4.90;3.20;;;9.90;99.90;;;;;;5014440;28;20197;-71
2020/12/14 12:35:35;;;;;;;3.33;2.97;;;9.90;99.90;;;;;;5016106;28;20209;-72
2020/12/14 12:38:04;;;;;;;3.20;2.73;;;10.00;99.90;;;;;;5019161;28;20246;-71
2020/12/14 12:40:29;;;;;;;3.93;3.53;;;9.90;99.90;;;;;;5031052;28;20201;-72
2020/12/14 12:42:55;;;;;;;3.50;2.80;;;10.00;99.90;;;;;;5021877;28;20435;-72
2020/12/14 12:45:24;;;;;;;4.83;3.07;;;10.00;99.90;;;;;;5019860;28;20213;-73
2020/12/14 12:47:50;;;;;;;3.20;2.77;;;9.90;99.90;;;;;;5025321;28;20186;-73
2020/12/14 12:50:16;;;;;;;3.13;2.83;;;10.00;99.90;;;;;;5033422;28;20519;-72
2020/12/14 12:52:42;;;;;;;3.53;3.13;;;10.00;99.90;;;;;;5015221;28;20184;-72
2020/12/14 12:55:07;;;;;;;4.37;3.27;;;10.10;99.90;;;;;;5013354;28;20439;-72
2020/12/14 12:57:33;;;;;;;3.77;3.10;;;10.00;99.90;;;;;;5013645;28;20553;-72
2020/12/14 12:59:58;;;;;;;4.70;3.20;;;10.10;99.90;;;;;;5013286;28;20198;-72